Atlantic Companion — SKPE — position and weather

sailwx.info

Track history (hours):
 
Tides and Currents Weather Stations Pressure Air Temp Water Temp Dewpoint Dewpoint Depression Visibility Wind Speed Wind Dir Waves Ship Positions

Atlantic Companion

Last reported at 2015-Jan-27 13:33 UTC. Time now 2015-Jan-27 14:25 UTC.
Position N 53°31' W 003°34'.

Length 292 m; beam 32.3 m; draft 11.6 m.

Type: Cargo ship. MMSI: 265142000.

Date/timePositionNaut miles runAvg speedWind from/ knotsBaromVisibWave heightAir tempDewpointWater temp
2015-Jan-27 13:33N 53°31' W 003°34'9 9.0
2015-Jan-27 12:33N 53°30' W 003°49'83 3.2
2015-Jan-26 10:31N 52°35' W 005°34'1111.9
2015-Jan-26 09:33N 52°25' W 005°43'1110.9
2015-Jan-26 08:33N 52°16' W 005°53'10 9.7
2015-Jan-26 07:33N 52°08' W 006°01'9 9.0
2015-Jan-26 06:33N 52°02' W 006°12'9 9.5
2015-Jan-26 05:33N 51°58' W 006°26'1010.1
2015-Jan-26 04:33N 51°55' W 006°41'1110.8
2015-Jan-26 03:33N 51°51' W 006°58'1110.9
2015-Jan-26 02:33N 51°47' W 007°14'1110.9
2015-Jan-26 01:33N 51°45' W 007°32'1111.2
2015-Jan-26 00:33N 51°41' W 007°48'1111.2
2015-Jan-25 23:33N 51°37' W 008°05'1111.3
2015-Jan-25 22:33N 51°33' W 008°22'1211.6
2015-Jan-25 21:33N 51°29' W 008°40'1211.8
2015-Jan-25 20:33N 51°25' W 008°58'1211.8
2015-Jan-25 19:33N 51°21' W 009°16'1211.7
2015-Jan-25 18:33N 51°17' W 009°33'1111.4
2015-Jan-25 17:33N 51°16' W 009°51'1111.0
2015-Jan-25 16:33N 51°15' W 010°09'1210.6
2015-Jan-25 15:27N 51°14' W 010°28'14 3.6
2015-Jan-25 11:34N 51°25' W 010°14'1717.0
2015-Jan-25 10:34N 51°35' W 009°52'2 0.6
2015-Jan-25 07:33N 51°36' W 009°49'2 0.3
2015-Jan-25 01:21N 51°37' W 009°47'1 0.1
2015-Jan-24 17:32N 51°37' W 009°46'0 0.0
2015-Jan-24 16:32N 51°37' W 009°46'0 0.0
2015-Jan-24 15:23N 51°37' W 009°46'0 0.0
2015-Jan-24 14:26N 51°37' W 009°46'0 0.0
2015-Jan-24 13:32N 51°37' W 009°46'0 0.0
2015-Jan-24 12:32N 51°37' W 009°46'0 0.1
2015-Jan-24 11:32N 51°37' W 009°46'0 0.0
2015-Jan-24 10:32N 51°37' W 009°46'0 0.0
2015-Jan-24 09:32N 51°37' W 009°46'0 0.1
2015-Jan-24 08:32N 51°37' W 009°46'0 0.0
2015-Jan-24 07:17N 51°37' W 009°46'0 0.0
2015-Jan-24 02:17N 51°37' W 009°46'0 0.0
2015-Jan-24 01:23N 51°37' W 009°46'0 0.0
2015-Jan-24 00:05N 51°37' W 009°46'0 0.0
2015-Jan-23 21:11N 51°37' W 009°46'0 0.0
2015-Jan-23 20:26N 51°37' W 009°46'0 0.0
2015-Jan-23 19:32N 51°37' W 009°46'0 0.0
2015-Jan-23 18:29N 51°37' W 009°46'0 0.0
2015-Jan-23 17:32N 51°37' W 009°46'0 0.1
2015-Jan-23 16:32N 51°37' W 009°46'0 0.0
2015-Jan-23 15:32N 51°37' W 009°46'0 0.1
2015-Jan-23 14:32N 51°37' W 009°46'0 0.0
2015-Jan-23 13:32N 51°37' W 009°46'0 0.0
2015-Jan-23 12:32N 51°37' W 009°46'0 0.0
2015-Jan-23 11:29N 51°37' W 009°46'0 0.0
2015-Jan-23 10:32N 51°37' W 009°46'0 0.0
2015-Jan-23 09:32N 51°37' W 009°46'0 0.0
2015-Jan-22 22:32N 51°38' W 009°46'0 0.0
2015-Jan-22 21:32N 51°37' W 009°46'0 0.0
2015-Jan-22 20:32N 51°37' W 009°46'0 0.1
2015-Jan-22 19:32N 51°37' W 009°46'0 0.0
2015-Jan-22 18:32N 51°37' W 009°46'0 0.0
2015-Jan-22 17:32N 51°37' W 009°46'0 0.0
2015-Jan-22 16:32N 51°37' W 009°46'0 0.0
2015-Jan-22 15:32N 51°37' W 009°46'0 0.0
2015-Jan-22 14:32N 51°37' W 009°46'0 0.1
2015-Jan-22 13:32N 51°37' W 009°46'0 0.2
2015-Jan-22 12:32N 51°37' W 009°46'0 0.1
2015-Jan-22 11:32N 51°37' W 009°46'0 0.0
2015-Jan-22 10:32N 51°37' W 009°46'0 0.0
2015-Jan-22 09:26N 51°37' W 009°46'0 0.0
2015-Jan-22 08:32N 51°37' W 009°46'0 0.0
2015-Jan-21 21:29N 51°37' W 009°46'0 0.1
2015-Jan-21 20:26N 51°37' W 009°46'0 0.1
2015-Jan-21 17:14N 51°37' W 009°46'0 0.0
2015-Jan-21 16:29N 51°37' W 009°46'0 0.0
2015-Jan-21 15:17N 51°37' W 009°46'0 0.1
2015-Jan-21 14:32N 51°37' W 009°46'0 0.1
2015-Jan-21 13:26N 51°37' W 009°46'0 0.1
2015-Jan-21 12:29N 51°37' W 009°46'0 0.1
2015-Jan-21 11:32N 51°37' W 009°46'0 0.0
2015-Jan-21 10:26N 51°37' W 009°46'0 0.1
2015-Jan-21 09:32N 51°37' W 009°46'0 0.0
2015-Jan-21 08:26N 51°37' W 009°46'0 0.0
2015-Jan-21 07:29N 51°37' W 009°46'0 0.0
2015-Jan-21 04:11N 51°37' W 009°46'0 0.0
2015-Jan-21 02:23N 51°37' W 009°46'1 1.0
2015-Jan-21 01:31N 51°37' W 009°47'7 7.1
2015-Jan-21 00:33N 51°33' W 009°56'6 6.3
2015-Jan-20 23:33N 51°27' W 009°59'6 6.1
2015-Jan-20 22:33N 51°21' W 009°57'5 5.1
2015-Jan-20 21:33N 51°18' W 009°51'7 6.5
2015-Jan-20 20:33N 51°19' W 009°41'7 7.2
2015-Jan-20 19:33N 51°21' W 009°30'2 1.7
2015-Jan-20 18:33N 51°21' W 009°27'6 6.3
2015-Jan-20 17:33N 51°19' W 009°18'6 5.5
2015-Jan-20 16:33N 51°13' W 009°20'2 2.4
2015-Jan-20 15:34N 51°13' W 009°24'2 2.4
2015-Jan-20 14:33N 51°13' W 009°27'2 2.4
2015-Jan-20 13:33N 51°14' W 009°31'2 1.9
2015-Jan-20 12:33N 51°14' W 009°34'1 1.5
2015-Jan-20 11:33N 51°14' W 009°36'1 1.2
2015-Jan-20 10:33N 51°14' W 009°38'1 1.1
2015-Jan-20 09:33N 51°15' W 009°40'1 1.2
2015-Jan-20 08:33N 51°16' W 009°41'2 1.6
2015-Jan-20 07:33N 51°17' W 009°43'2 1.5
2015-Jan-20 06:33N 51°18' W 009°42'1313.1
2015-Jan-20 05:33N 51°22' W 009°22'1313.3
2015-Jan-20 04:33N 51°25' W 009°01'1413.7
2015-Jan-20 03:33N 51°29' W 008°40'1414.1
2015-Jan-20 02:33N 51°36' W 008°20'1514.4
2015-Jan-20 01:33N 51°41' W 007°58'1615.8
2015-Jan-20 00:34N 51°46' W 007°35'1716.5
2015-Jan-19 23:33N 51°52' W 007°09'1716.8
2015-Jan-19 22:33N 51°58' W 006°44'15013.2
2015-Jan-19 11:13N 53°33' W 003°33'1015.4
2015-Jan-19 10:33N 53°31' W 003°15'10 9.8
2015-Jan-19 09:33N 53°27' W 003°01'1 0.7
2015-Jan-19 08:28N 53°28' W 003°02'0 0.3
2015-Jan-19 07:28N 53°28' W 003°01'0 0.0
2015-Jan-19 06:28N 53°28' W 003°01'0 0.0
2015-Jan-19 05:28N 53°28' W 003°01'0 0.0
2015-Jan-19 04:22N 53°28' W 003°01'0 0.0
2015-Jan-19 03:22N 53°28' W 003°01'0 0.0
2015-Jan-19 02:28N 53°28' W 003°01'0 0.0
2015-Jan-19 01:28N 53°28' W 003°01'0 0.0
2015-Jan-19 00:28N 53°28' W 003°01'0 0.0
2015-Jan-18 23:22N 53°28' W 003°01'0 0.0
2015-Jan-18 22:28N 53°28' W 003°01'0 0.0
2015-Jan-18 21:28N 53°28' W 003°01'0 0.0
2015-Jan-18 20:28N 53°28' W 003°01'0 0.0
2015-Jan-18 19:28N 53°28' W 003°01'0 0.0
2015-Jan-18 18:28N 53°28' W 003°01'0 0.0
2015-Jan-18 17:28N 53°28' W 003°01'0 0.0
2015-Jan-18 16:22N 53°28' W 003°01'0 0.0
2015-Jan-18 15:28N 53°28' W 003°01'0 0.0
2015-Jan-18 14:28N 53°28' W 003°01'0 0.0
2015-Jan-18 13:22N 53°28' W 003°01'0 0.0
2015-Jan-18 12:28N 53°28' W 003°01'0 0.0
2015-Jan-18 11:22N 53°28' W 003°01'0 0.0
2015-Jan-18 10:28N 53°28' W 003°01'0 0.0
2015-Jan-18 09:22N 53°28' W 003°01'0 0.0
2015-Jan-18 08:28N 53°28' W 003°01'0 0.0
2015-Jan-18 07:28N 53°28' W 003°01'0 0.0
2015-Jan-18 06:28N 53°28' W 003°01'0 0.0
2015-Jan-18 05:28N 53°28' W 003°01'0 0.0
2015-Jan-18 04:34N 53°28' W 003°01'0 0.0
2015-Jan-18 03:34N 53°28' W 003°01'0 0.0
2015-Jan-18 02:33N 53°28' W 003°01'0 0.0
2015-Jan-18 01:34N 53°28' W 003°01'0 0.0
2015-Jan-18 00:33N 53°28' W 003°01'0 0.0
2015-Jan-17 23:33N 53°28' W 003°01'0 0.0
2015-Jan-17 22:33N 53°28' W 003°01'0 0.0
2015-Jan-17 21:33N 53°28' W 003°01'1 0.7
2015-Jan-17 20:34N 53°27' W 003°01'0 0.2
2015-Jan-17 19:34N 53°27' W 003°01'1 0.7
2015-Jan-17 18:34N 53°27' W 003°02'9 8.9
2015-Jan-17 17:34N 53°31' W 003°15'1211.7
2015-Jan-17 16:34N 53°31' W 003°35'  
Track history (hours):
 
Tides and Currents Weather Stations Pressure Air Temp Water Temp Dewpoint Dewpoint Depression Visibility Wind Speed Wind Dir Waves Ship Positions

Atlantic Companion

Last reported at 2015-Jan-27 13:33 UTC. Time now 2015-Jan-27 14:25 UTC.
Position N 53°31' W 003°34'.

Length 292 m; beam 32.3 m; draft 11.6 m.

Type: Cargo ship. MMSI: 265142000.

Date/timePositionNaut miles runAvg speedWind from/ knotsBaromVisibWave heightAir tempDewpointWater temp
2015-Jan-27 13:33N 53°31' W 003°34'9 9.0
2015-Jan-27 12:33N 53°30' W 003°49'83 3.2
2015-Jan-26 10:31N 52°35' W 005°34'1111.9
2015-Jan-26 09:33N 52°25' W 005°43'1110.9
2015-Jan-26 08:33N 52°16' W 005°53'10 9.7
2015-Jan-26 07:33N 52°08' W 006°01'9 9.0
2015-Jan-26 06:33N 52°02' W 006°12'9 9.5
2015-Jan-26 05:33N 51°58' W 006°26'1010.1
2015-Jan-26 04:33N 51°55' W 006°41'1110.8
2015-Jan-26 03:33N 51°51' W 006°58'1110.9
2015-Jan-26 02:33N 51°47' W 007°14'1110.9
2015-Jan-26 01:33N 51°45' W 007°32'1111.2
2015-Jan-26 00:33N 51°41' W 007°48'1111.2
2015-Jan-25 23:33N 51°37' W 008°05'1111.3
2015-Jan-25 22:33N 51°33' W 008°22'1211.6
2015-Jan-25 21:33N 51°29' W 008°40'1211.8
2015-Jan-25 20:33N 51°25' W 008°58'1211.8
2015-Jan-25 19:33N 51°21' W 009°16'1211.7
2015-Jan-25 18:33N 51°17' W 009°33'1111.4
2015-Jan-25 17:33N 51°16' W 009°51'1111.0
2015-Jan-25 16:33N 51°15' W 010°09'1210.6
2015-Jan-25 15:27N 51°14' W 010°28'14 3.6
2015-Jan-25 11:34N 51°25' W 010°14'1717.0
2015-Jan-25 10:34N 51°35' W 009°52'2 0.6
2015-Jan-25 07:33N 51°36' W 009°49'2 0.3
2015-Jan-25 01:21N 51°37' W 009°47'1 0.1
2015-Jan-24 17:32N 51°37' W 009°46'0 0.0
2015-Jan-24 16:32N 51°37' W 009°46'0 0.0
2015-Jan-24 15:23N 51°37' W 009°46'0 0.0
2015-Jan-24 14:26N 51°37' W 009°46'0 0.0
2015-Jan-24 13:32N 51°37' W 009°46'0 0.0
2015-Jan-24 12:32N 51°37' W 009°46'0 0.1
2015-Jan-24 11:32N 51°37' W 009°46'0 0.0
2015-Jan-24 10:32N 51°37' W 009°46'0 0.0
2015-Jan-24 09:32N 51°37' W 009°46'0 0.1
2015-Jan-24 08:32N 51°37' W 009°46'0 0.0
2015-Jan-24 07:17N 51°37' W 009°46'0 0.0
2015-Jan-24 02:17N 51°37' W 009°46'0 0.0
2015-Jan-24 01:23N 51°37' W 009°46'0 0.0
2015-Jan-24 00:05N 51°37' W 009°46'0 0.0
2015-Jan-23 21:11N 51°37' W 009°46'0 0.0
2015-Jan-23 20:26N 51°37' W 009°46'0 0.0
2015-Jan-23 19:32N 51°37' W 009°46'0 0.0
2015-Jan-23 18:29N 51°37' W 009°46'0 0.0
2015-Jan-23 17:32N 51°37' W 009°46'0 0.1
2015-Jan-23 16:32N 51°37' W 009°46'0 0.0
2015-Jan-23 15:32N 51°37' W 009°46'0 0.1
2015-Jan-23 14:32N 51°37' W 009°46'0 0.0
2015-Jan-23 13:32N 51°37' W 009°46'0 0.0
2015-Jan-23 12:32N 51°37' W 009°46'0 0.0
2015-Jan-23 11:29N 51°37' W 009°46'0 0.0
2015-Jan-23 10:32N 51°37' W 009°46'0 0.0
2015-Jan-23 09:32N 51°37' W 009°46'0 0.0
2015-Jan-22 22:32N 51°38' W 009°46'0 0.0
2015-Jan-22 21:32N 51°37' W 009°46'0 0.0
2015-Jan-22 20:32N 51°37' W 009°46'0 0.1
2015-Jan-22 19:32N 51°37' W 009°46'0 0.0
2015-Jan-22 18:32N 51°37' W 009°46'0 0.0
2015-Jan-22 17:32N 51°37' W 009°46'0 0.0
2015-Jan-22 16:32N 51°37' W 009°46'0 0.0
2015-Jan-22 15:32N 51°37' W 009°46'0 0.0
2015-Jan-22 14:32N 51°37' W 009°46'0 0.1
2015-Jan-22 13:32N 51°37' W 009°46'0 0.2
2015-Jan-22 12:32N 51°37' W 009°46'0 0.1
2015-Jan-22 11:32N 51°37' W 009°46'0 0.0
2015-Jan-22 10:32N 51°37' W 009°46'0 0.0
2015-Jan-22 09:26N 51°37' W 009°46'0 0.0
2015-Jan-22 08:32N 51°37' W 009°46'0 0.0
2015-Jan-21 21:29N 51°37' W 009°46'0 0.1
2015-Jan-21 20:26N 51°37' W 009°46'0 0.1
2015-Jan-21 17:14N 51°37' W 009°46'0 0.0
2015-Jan-21 16:29N 51°37' W 009°46'0 0.0
2015-Jan-21 15:17N 51°37' W 009°46'0 0.1
2015-Jan-21 14:32N 51°37' W 009°46'0 0.1
2015-Jan-21 13:26N 51°37' W 009°46'0 0.1
2015-Jan-21 12:29N 51°37' W 009°46'0 0.1
2015-Jan-21 11:32N 51°37' W 009°46'0 0.0
2015-Jan-21 10:26N 51°37' W 009°46'0 0.1
2015-Jan-21 09:32N 51°37' W 009°46'0 0.0
2015-Jan-21 08:26N 51°37' W 009°46'0 0.0
2015-Jan-21 07:29N 51°37' W 009°46'0 0.0
2015-Jan-21 04:11N 51°37' W 009°46'0 0.0
2015-Jan-21 02:23N 51°37' W 009°46'1 1.0
2015-Jan-21 01:31N 51°37' W 009°47'7 7.1
2015-Jan-21 00:33N 51°33' W 009°56'6 6.3
2015-Jan-20 23:33N 51°27' W 009°59'6 6.1
2015-Jan-20 22:33N 51°21' W 009°57'5 5.1
2015-Jan-20 21:33N 51°18' W 009°51'7 6.5
2015-Jan-20 20:33N 51°19' W 009°41'7 7.2
2015-Jan-20 19:33N 51°21' W 009°30'2 1.7
2015-Jan-20 18:33N 51°21' W 009°27'6 6.3
2015-Jan-20 17:33N 51°19' W 009°18'6 5.5
2015-Jan-20 16:33N 51°13' W 009°20'2 2.4
2015-Jan-20 15:34N 51°13' W 009°24'2 2.4
2015-Jan-20 14:33N 51°13' W 009°27'2 2.4
2015-Jan-20 13:33N 51°14' W 009°31'2 1.9
2015-Jan-20 12:33N 51°14' W 009°34'1 1.5
2015-Jan-20 11:33N 51°14' W 009°36'1 1.2
2015-Jan-20 10:33N 51°14' W 009°38'1 1.1
2015-Jan-20 09:33N 51°15' W 009°40'1 1.2
2015-Jan-20 08:33N 51°16' W 009°41'2 1.6
2015-Jan-20 07:33N 51°17' W 009°43'2 1.5
2015-Jan-20 06:33N 51°18' W 009°42'1313.1
2015-Jan-20 05:33N 51°22' W 009°22'1313.3
2015-Jan-20 04:33N 51°25' W 009°01'1413.7
2015-Jan-20 03:33N 51°29' W 008°40'1414.1
2015-Jan-20 02:33N 51°36' W 008°20'1514.4
2015-Jan-20 01:33N 51°41' W 007°58'1615.8
2015-Jan-20 00:34N 51°46' W 007°35'1716.5
2015-Jan-19 23:33N 51°52' W 007°09'1716.8
2015-Jan-19 22:33N 51°58' W 006°44'15013.2
2015-Jan-19 11:13N 53°33' W 003°33'1015.4
2015-Jan-19 10:33N 53°31' W 003°15'10 9.8
2015-Jan-19 09:33N 53°27' W 003°01'1 0.7
2015-Jan-19 08:28N 53°28' W 003°02'0 0.3
2015-Jan-19 07:28N 53°28' W 003°01'0 0.0
2015-Jan-19 06:28N 53°28' W 003°01'0 0.0
2015-Jan-19 05:28N 53°28' W 003°01'0 0.0
2015-Jan-19 04:22N 53°28' W 003°01'0 0.0
2015-Jan-19 03:22N 53°28' W 003°01'0 0.0
2015-Jan-19 02:28N 53°28' W 003°01'0 0.0
2015-Jan-19 01:28N 53°28' W 003°01'0 0.0
2015-Jan-19 00:28N 53°28' W 003°01'0 0.0
2015-Jan-18 23:22N 53°28' W 003°01'0 0.0
2015-Jan-18 22:28N 53°28' W 003°01'0 0.0
2015-Jan-18 21:28N 53°28' W 003°01'0 0.0
2015-Jan-18 20:28N 53°28' W 003°01'0 0.0
2015-Jan-18 19:28N 53°28' W 003°01'0 0.0
2015-Jan-18 18:28N 53°28' W 003°01'0 0.0
2015-Jan-18 17:28N 53°28' W 003°01'0 0.0
2015-Jan-18 16:22N 53°28' W 003°01'0 0.0
2015-Jan-18 15:28N 53°28' W 003°01'0 0.0
2015-Jan-18 14:28N 53°28' W 003°01'0 0.0
2015-Jan-18 13:22N 53°28' W 003°01'0 0.0
2015-Jan-18 12:28N 53°28' W 003°01'0 0.0
2015-Jan-18 11:22N 53°28' W 003°01'0 0.0
2015-Jan-18 10:28N 53°28' W 003°01'0 0.0
2015-Jan-18 09:22N 53°28' W 003°01'0 0.0
2015-Jan-18 08:28N 53°28' W 003°01'0 0.0
2015-Jan-18 07:28N 53°28' W 003°01'0 0.0
2015-Jan-18 06:28N 53°28' W 003°01'0 0.0
2015-Jan-18 05:28N 53°28' W 003°01'0 0.0
2015-Jan-18 04:34N 53°28' W 003°01'0 0.0
2015-Jan-18 03:34N 53°28' W 003°01'0 0.0
2015-Jan-18 02:33N 53°28' W 003°01'0 0.0
2015-Jan-18 01:34N 53°28' W 003°01'0 0.0
2015-Jan-18 00:33N 53°28' W 003°01'0 0.0
2015-Jan-17 23:33N 53°28' W 003°01'0 0.0
2015-Jan-17 22:33N 53°28' W 003°01'0 0.0
2015-Jan-17 21:33N 53°28' W 003°01'1 0.7
2015-Jan-17 20:34N 53°27' W 003°01'0 0.2
2015-Jan-17 19:34N 53°27' W 003°01'1 0.7
2015-Jan-17 18:34N 53°27' W 003°02'9 8.9
2015-Jan-17 17:34N 53°31' W 003°15'1211.7
2015-Jan-17 16:34N 53°31' W 003°35'  

Dump ship's entire track history